createdAt,value
2023-05-31T00:00:51.455Z,11.14
2023-05-31T00:03:19.372Z,11.10
2023-05-31T00:05:47.219Z,11.16
2023-05-31T00:08:15.048Z,11.09
2023-05-31T00:10:42.801Z,11.02
2023-05-31T00:13:10.801Z,11.02
2023-05-31T00:15:38.737Z,10.98
2023-05-31T00:18:08.205Z,11.00
2023-05-31T00:20:36.069Z,10.94
2023-05-31T00:23:04.118Z,10.96
2023-05-31T00:25:32.068Z,10.97
2023-05-31T00:27:59.881Z,10.92
2023-05-31T00:30:27.788Z,10.86
2023-05-31T00:32:55.607Z,10.85
2023-05-31T00:35:24.796Z,10.90
2023-05-31T00:37:52.671Z,10.85
2023-05-31T00:40:20.734Z,10.90
2023-05-31T00:42:48.554Z,10.83
2023-05-31T00:45:16.662Z,10.89
2023-05-31T00:47:44.807Z,10.83
2023-05-31T00:50:12.928Z,10.88
2023-05-31T00:52:42.699Z,10.80
2023-05-31T00:55:11.182Z,10.81
2023-05-31T00:57:40.274Z,10.68
2023-05-31T01:00:10.524Z,10.68
2023-05-31T01:02:42.446Z,10.65
2023-05-31T01:05:10.716Z,10.59
2023-05-31T01:07:39.197Z,10.47
2023-05-31T01:10:09.761Z,10.46
2023-05-31T01:12:51.068Z,10.46
2023-05-31T01:15:22.138Z,10.36
2023-05-31T01:18:01.963Z,10.34
2023-05-31T01:20:34.216Z,10.30
2023-05-31T01:23:24.120Z,10.23
2023-05-31T01:26:18.197Z,10.23
2023-05-31T01:28:51.547Z,10.26
2023-05-31T01:31:22.748Z,10.25
2023-05-31T01:33:51.243Z,10.26
2023-05-31T01:36:19.164Z,10.26
2023-05-31T01:38:47.320Z,10.27
2023-05-31T01:41:16.634Z,10.20
2023-05-31T01:43:47.629Z,10.24
2023-05-31T01:46:19.196Z,10.14
2023-05-31T01:48:50.572Z,10.17
2023-05-31T01:51:19.294Z,10.02
2023-05-31T01:53:47.257Z,10.09
2023-05-31T01:56:16.078Z,10.08
2023-05-31T01:58:48.188Z,10.08
2023-05-31T02:01:19.514Z,10.01
2023-05-31T02:03:47.839Z,9.95
2023-05-31T02:06:15.662Z,10.00
2023-05-31T02:08:43.498Z,9.98
2023-05-31T02:11:11.842Z,10.02
2023-05-31T02:13:39.661Z,9.99
2023-05-31T02:16:08.409Z,9.96
2023-05-31T02:18:37.901Z,10.01
2023-05-31T02:21:07.149Z,9.96
2023-05-31T02:23:35.149Z,9.94
2023-05-31T02:26:05.044Z,9.96
2023-05-31T02:28:33.326Z,9.92
2023-05-31T02:31:03.040Z,9.83
2023-05-31T02:33:31.841Z,9.81
2023-05-31T02:36:03.804Z,9.81
2023-05-31T02:38:31.650Z,9.81
2023-05-31T02:40:59.464Z,9.78
2023-05-31T02:43:27.533Z,9.69
2023-05-31T02:45:55.542Z,9.55
2023-05-31T02:48:23.401Z,9.49
2023-05-31T02:50:51.355Z,9.53
2023-05-31T02:53:30.773Z,9.54
2023-05-31T02:56:05.898Z,9.54
2023-05-31T02:58:53.993Z,9.54
2023-05-31T03:01:32.254Z,9.54
2023-05-31T03:04:26.951Z,9.53
2023-05-31T03:06:57.071Z,9.54
2023-05-31T03:09:26.298Z,9.56
2023-05-31T03:11:55.528Z,9.54
2023-05-31T03:14:24.198Z,9.51
2023-05-31T03:16:56.193Z,9.44
2023-05-31T03:19:24.470Z,9.48
2023-05-31T03:21:54.769Z,9.43
2023-05-31T03:24:22.891Z,9.45
2023-05-31T03:26:53.450Z,9.45
2023-05-31T03:29:21.271Z,9.39
2023-05-31T03:31:50.109Z,9.41
2023-05-31T03:34:18.261Z,9.36
2023-05-31T03:36:46.271Z,9.40
2023-05-31T03:39:37.012Z,9.38
2023-05-31T03:42:08.343Z,9.29
2023-05-31T03:44:36.204Z,9.37
2023-05-31T03:47:04.150Z,9.39
2023-05-31T03:49:32.034Z,9.38
2023-05-31T03:51:59.909Z,9.45
2023-05-31T03:54:28.722Z,9.43
2023-05-31T03:56:56.747Z,9.50
2023-05-31T03:59:26.106Z,9.58
2023-05-31T04:01:54.118Z,9.59
2023-05-31T04:04:22.019Z,9.61
2023-05-31T04:06:49.984Z,9.75
2023-05-31T04:09:18.850Z,9.80
2023-05-31T04:11:46.848Z,9.90
2023-05-31T04:14:14.659Z,9.94
2023-05-31T04:16:43.822Z,9.95
2023-05-31T04:19:12.884Z,10.05
2023-05-31T04:21:40.771Z,10.13
2023-05-31T04:24:09.478Z,10.15
2023-05-31T04:26:38.784Z,10.16
2023-05-31T04:29:07.702Z,10.28
2023-05-31T04:31:50.517Z,10.38
2023-05-31T04:34:22.813Z,10.48
2023-05-31T04:36:53.285Z,10.47
2023-05-31T04:39:24.770Z,10.57
2023-05-31T04:41:56.563Z,10.58
2023-05-31T04:44:24.824Z,10.69
2023-05-31T04:46:55.052Z,10.63
2023-05-31T04:49:25.492Z,10.85
2023-05-31T04:51:53.965Z,11.06
2023-05-31T04:54:22.368Z,11.11
2023-05-31T04:56:52.953Z,11.14
2023-05-31T04:59:21.900Z,11.07
2023-05-31T05:01:50.337Z,11.09
2023-05-31T05:04:18.725Z,11.28
2023-05-31T05:06:48.660Z,11.35
2023-05-31T05:09:16.943Z,11.55
2023-05-31T05:11:44.848Z,11.57
2023-05-31T05:14:13.189Z,11.56
2023-05-31T05:16:41.252Z,11.63
2023-05-31T05:19:09.162Z,11.77
2023-05-31T05:21:39.197Z,11.91
2023-05-31T05:24:08.587Z,11.95
2023-05-31T05:26:38.106Z,11.97
2023-05-31T05:29:07.881Z,12.05
2023-05-31T05:31:35.938Z,12.00
2023-05-31T05:34:06.538Z,12.06
2023-05-31T05:36:34.333Z,12.26
2023-05-31T05:39:06.890Z,12.24
2023-05-31T05:41:36.754Z,12.29
2023-05-31T05:44:06.662Z,12.44
2023-05-31T05:46:35.248Z,12.51
2023-05-31T05:49:04.372Z,12.71
2023-05-31T05:51:33.332Z,12.66
2023-05-31T05:54:06.816Z,12.64
2023-05-31T05:56:36.375Z,12.59
2023-05-31T05:59:04.486Z,12.56
2023-05-31T06:01:55.151Z,12.75
2023-05-31T06:04:24.667Z,12.79
2023-05-31T06:06:52.859Z,12.90
2023-05-31T06:09:20.960Z,12.97
2023-05-31T06:11:50.406Z,13.20
2023-05-31T06:14:18.239Z,13.28
2023-05-31T06:16:50.693Z,13.32
2023-05-31T06:19:18.768Z,13.40
2023-05-31T06:21:48.607Z,13.56
2023-05-31T06:24:16.947Z,13.72
2023-05-31T06:26:45.051Z,13.77
2023-05-31T06:29:15.046Z,13.94
2023-05-31T06:32:07.178Z,14.02
2023-05-31T06:34:38.427Z,14.18
2023-05-31T06:37:09.888Z,14.21
2023-05-31T06:39:37.752Z,14.21
2023-05-31T06:42:06.431Z,14.26
2023-05-31T06:44:56.140Z,14.23
2023-05-31T06:48:01.019Z,14.38
2023-05-31T06:50:29.021Z,14.46
2023-05-31T06:53:12.796Z,14.42
2023-05-31T06:55:49.497Z,14.62
2023-05-31T06:58:21.032Z,14.84
2023-05-31T07:00:53.505Z,15.11
2023-05-31T07:03:21.940Z,15.02
2023-05-31T07:05:49.844Z,15.06
2023-05-31T07:08:17.789Z,15.51
2023-05-31T07:11:05.658Z,15.50
2023-05-31T07:13:33.586Z,15.72
2023-05-31T07:16:03.036Z,15.67
2023-05-31T07:18:31.043Z,15.69
2023-05-31T07:21:00.893Z,16.04
2023-05-31T07:23:29.089Z,16.06
2023-05-31T07:25:58.351Z,16.35
2023-05-31T07:28:26.336Z,16.37
2023-05-31T07:30:54.294Z,16.39
2023-05-31T07:33:28.827Z,16.52
2023-05-31T07:35:58.669Z,16.46
2023-05-31T07:38:26.724Z,16.42
2023-05-31T07:40:54.964Z,16.56
2023-05-31T07:43:22.881Z,16.64
2023-05-31T07:45:51.331Z,16.67
2023-05-31T07:48:19.557Z,17.05
2023-05-31T07:50:49.139Z,17.11
2023-05-31T07:53:16.961Z,16.87
2023-05-31T07:55:46.150Z,17.17
2023-05-31T07:58:13.992Z,17.39
2023-05-31T08:00:42.153Z,17.51
2023-05-31T08:03:10.006Z,17.50
2023-05-31T08:05:38.015Z,17.58
2023-05-31T08:08:08.084Z,17.70
2023-05-31T08:10:36.020Z,17.67
2023-05-31T08:13:04.089Z,17.64
2023-05-31T08:15:32.182Z,17.78
2023-05-31T08:18:00.410Z,17.87
2023-05-31T08:20:30.173Z,17.86
2023-05-31T08:22:58.878Z,18.11
2023-05-31T08:25:28.189Z,18.17
2023-05-31T08:27:56.123Z,18.60
2023-05-31T08:30:23.884Z,18.90
2023-05-31T08:32:51.673Z,19.23
2023-05-31T08:35:19.519Z,19.28
2023-05-31T08:37:48.889Z,19.38
2023-05-31T08:40:17.431Z,19.60
2023-05-31T08:42:53.124Z,19.74
2023-05-31T08:45:21.611Z,19.74
2023-05-31T08:47:59.983Z,19.46
2023-05-31T08:50:29.327Z,19.54
2023-05-31T08:52:58.537Z,19.54
2023-05-31T08:55:27.564Z,19.52
2023-05-31T08:57:58.344Z,19.62
2023-05-31T09:00:27.021Z,19.83
2023-05-31T09:02:55.253Z,20.02
2023-05-31T09:05:23.305Z,20.26
2023-05-31T09:07:51.457Z,20.19
2023-05-31T09:10:20.971Z,20.29
2023-05-31T09:12:48.918Z,20.09
2023-05-31T09:15:18.540Z,20.27
2023-05-31T09:17:46.858Z,20.38
2023-05-31T09:20:15.247Z,20.40
2023-05-31T09:22:43.354Z,20.92
2023-05-31T09:25:11.316Z,21.21
2023-05-31T09:27:40.529Z,20.85
2023-05-31T09:30:10.875Z,20.89
2023-05-31T09:32:40.768Z,21.14
2023-05-31T09:35:13.964Z,21.09
2023-05-31T09:37:46.087Z,21.48
2023-05-31T09:40:23.827Z,21.59
2023-05-31T09:42:52.781Z,21.55
2023-05-31T09:45:21.659Z,21.93
2023-05-31T09:47:51.393Z,21.96
2023-05-31T09:50:20.585Z,21.98
2023-05-31T09:52:53.028Z,22.05
2023-05-31T09:55:20.869Z,22.23
2023-05-31T09:57:49.792Z,22.31
2023-05-31T10:00:19.309Z,22.24
2023-05-31T10:02:48.787Z,21.97
2023-05-31T10:05:18.958Z,22.30
2023-05-31T10:07:49.975Z,22.50
2023-05-31T10:10:21.026Z,22.45
2023-05-31T10:12:52.659Z,22.51
2023-05-31T10:15:24.302Z,22.84
2023-05-31T10:18:04.507Z,22.78
2023-05-31T10:20:40.373Z,22.83
2023-05-31T10:23:14.330Z,23.08
2023-05-31T10:25:48.749Z,23.13
2023-05-31T10:28:25.534Z,23.43
2023-05-31T10:30:53.918Z,23.46
2023-05-31T10:33:23.020Z,23.19
2023-05-31T10:35:52.916Z,23.23
2023-05-31T10:38:26.825Z,23.40
2023-05-31T10:41:01.906Z,23.08
2023-05-31T10:43:38.547Z,23.47
2023-05-31T10:46:11.203Z,24.02
2023-05-31T10:48:48.860Z,23.81
2023-05-31T10:51:19.201Z,23.85
2023-05-31T10:53:48.089Z,24.15
2023-05-31T10:56:19.350Z,23.98
2023-05-31T10:58:52.594Z,24.86
2023-05-31T11:01:22.485Z,24.85
2023-05-31T11:03:52.288Z,25.26
2023-05-31T11:06:26.155Z,25.27
2023-05-31T11:09:01.240Z,25.79
2023-05-31T11:11:45.832Z,26.09
2023-05-31T11:14:27.372Z,26.69
2023-05-31T11:17:19.350Z,26.46
2023-05-31T11:19:53.932Z,26.63
2023-05-31T11:22:28.262Z,27.07
2023-05-31T11:24:59.041Z,26.39
2023-05-31T11:27:37.153Z,26.35
2023-05-31T11:30:08.867Z,26.93
2023-05-31T11:33:00.002Z,26.83
2023-05-31T11:35:27.911Z,27.34
2023-05-31T11:38:06.199Z,27.96
2023-05-31T11:40:36.893Z,27.86
2023-05-31T11:43:09.532Z,28.28
2023-05-31T11:45:44.559Z,27.80
2023-05-31T11:48:23.750Z,28.46
2023-05-31T11:50:52.128Z,28.31
2023-05-31T11:53:21.302Z,28.80
2023-05-31T11:55:50.069Z,28.99
2023-05-31T11:58:22.290Z,28.94
2023-05-31T12:00:50.986Z,29.82
2023-05-31T12:03:21.639Z,29.25
2023-05-31T12:05:53.529Z,28.98
2023-05-31T12:08:22.748Z,29.07
2023-05-31T12:10:51.393Z,29.12
2023-05-31T12:13:19.443Z,29.22
2023-05-31T12:15:54.591Z,29.76
2023-05-31T12:18:23.369Z,29.34
2023-05-31T12:20:51.864Z,29.04
2023-05-31T12:23:21.053Z,29.69
2023-05-31T12:25:52.192Z,29.41
2023-05-31T12:28:20.789Z,29.49
2023-05-31T12:30:49.730Z,29.32
2023-05-31T12:33:17.733Z,30.25
2023-05-31T12:35:47.217Z,30.10
2023-05-31T12:38:15.291Z,30.47
2023-05-31T12:40:44.453Z,29.87
2023-05-31T12:43:15.937Z,29.88
2023-05-31T12:45:44.567Z,30.75
2023-05-31T12:48:12.933Z,30.63
2023-05-31T12:50:47.478Z,30.64
2023-05-31T12:53:15.818Z,30.43
2023-05-31T12:55:43.830Z,31.00
2023-05-31T12:58:12.093Z,30.60
2023-05-31T13:00:41.620Z,30.52
2023-05-31T13:03:15.118Z,31.37
2023-05-31T13:05:43.642Z,31.31
2023-05-31T13:08:11.601Z,31.53
2023-05-31T13:10:39.472Z,31.45
2023-05-31T13:13:07.363Z,31.96
2023-05-31T13:15:35.382Z,31.92
2023-05-31T13:18:04.983Z,32.13
2023-05-31T13:20:32.840Z,31.74
2023-05-31T13:23:00.756Z,32.22
2023-05-31T13:25:28.546Z,32.74
2023-05-31T13:27:56.385Z,32.96
2023-05-31T13:30:24.172Z,32.33
2023-05-31T13:32:51.978Z,31.70
2023-05-31T13:35:21.290Z,32.39
2023-05-31T13:37:49.273Z,32.60
2023-05-31T13:40:17.108Z,31.76
2023-05-31T13:42:44.846Z,32.92
2023-05-31T13:45:12.888Z,32.44
2023-05-31T13:47:40.769Z,31.58
2023-05-31T13:50:09.096Z,32.22
2023-05-31T13:52:38.294Z,32.08
2023-05-31T13:55:09.891Z,32.40
2023-05-31T13:57:38.062Z,31.32
2023-05-31T14:00:08.046Z,31.44
2023-05-31T14:02:42.316Z,32.49
2023-05-31T14:05:10.615Z,32.40
2023-05-31T14:07:39.866Z,31.74
2023-05-31T14:10:09.071Z,32.25
2023-05-31T14:12:36.907Z,32.95
2023-05-31T14:15:05.540Z,33.47
2023-05-31T14:17:33.572Z,33.08
2023-05-31T14:20:01.480Z,33.11
2023-05-31T14:22:29.339Z,33.95
2023-05-31T14:24:58.595Z,32.75
2023-05-31T14:27:26.622Z,32.23
2023-05-31T14:29:54.423Z,32.69
2023-05-31T14:32:22.208Z,32.88
2023-05-31T14:34:50.464Z,32.20
2023-05-31T14:37:24.348Z,32.68
2023-05-31T14:39:55.855Z,33.15
2023-05-31T14:45:20.852Z,31.93
2023-05-31T14:47:48.720Z,32.03
2023-05-31T14:50:16.511Z,31.32
2023-05-31T14:52:44.379Z,31.02
2023-05-31T14:55:12.493Z,31.21
2023-05-31T14:57:41.434Z,31.66
2023-05-31T15:00:10.762Z,32.76
2023-05-31T15:02:40.119Z,31.79
2023-05-31T15:05:09.891Z,31.63
2023-05-31T15:07:37.743Z,31.16
2023-05-31T15:10:06.385Z,31.68
2023-05-31T15:12:34.234Z,31.57
2023-05-31T15:15:01.974Z,31.47
2023-05-31T15:17:29.990Z,31.96
2023-05-31T15:20:01.856Z,31.87
2023-05-31T15:22:30.152Z,31.59
2023-05-31T15:24:57.895Z,33.24
2023-05-31T15:27:25.690Z,32.63
2023-05-31T15:29:53.479Z,32.66
2023-05-31T15:32:21.354Z,32.45
2023-05-31T15:34:49.239Z,32.59
2023-05-31T15:37:18.373Z,32.65
2023-05-31T15:39:46.421Z,33.16
2023-05-31T15:42:14.191Z,32.73
2023-05-31T15:44:42.024Z,32.92
2023-05-31T15:47:10.275Z,33.63
2023-05-31T15:49:38.261Z,33.36
2023-05-31T15:52:06.671Z,33.40
2023-05-31T15:54:35.813Z,33.71
2023-05-31T15:57:03.663Z,33.33
2023-05-31T15:59:32.994Z,33.54
2023-05-31T16:02:00.820Z,33.95
2023-05-31T16:04:28.592Z,33.81
2023-05-31T16:06:56.348Z,32.95
2023-05-31T16:09:24.110Z,31.67
2023-05-31T16:11:53.253Z,33.63
2023-05-31T16:14:21.066Z,33.36
2023-05-31T16:16:49.185Z,32.39
2023-05-31T16:19:17.147Z,33.33
2023-05-31T16:21:44.927Z,34.05
2023-05-31T16:24:13.694Z,35.28
2023-05-31T16:26:41.495Z,34.17
2023-05-31T16:29:10.990Z,32.39
2023-05-31T16:31:39.169Z,32.68
2023-05-31T16:34:07.079Z,31.55
2023-05-31T16:36:34.844Z,31.10
2023-05-31T16:39:05.089Z,31.57
2023-05-31T16:41:32.961Z,31.87
2023-05-31T16:44:00.857Z,32.69
2023-05-31T16:46:30.068Z,32.62
2023-05-31T16:48:59.099Z,32.21
2023-05-31T16:51:27.278Z,31.50
2023-05-31T16:53:55.239Z,32.01
2023-05-31T16:56:22.989Z,31.84
2023-05-31T16:58:50.863Z,31.13
2023-05-31T17:01:18.709Z,30.68
2023-05-31T17:03:49.090Z,31.06
2023-05-31T17:06:17.227Z,31.08
2023-05-31T17:08:44.980Z,31.31
2023-05-31T17:11:13.193Z,31.27
2023-05-31T17:13:41.089Z,31.31
2023-05-31T17:16:08.873Z,30.54
2023-05-31T17:18:36.655Z,31.17
2023-05-31T17:21:06.400Z,30.53
2023-05-31T17:23:34.172Z,30.64
2023-05-31T17:26:02.161Z,30.05
2023-05-31T17:28:30.332Z,30.62
2023-05-31T17:30:58.514Z,29.93
2023-05-31T17:33:26.355Z,30.61
2023-05-31T17:35:56.155Z,29.17
2023-05-31T17:38:25.571Z,28.45
2023-05-31T17:40:53.341Z,29.56
2023-05-31T17:43:21.110Z,30.05
2023-05-31T17:45:50.225Z,30.83
2023-05-31T17:48:18.165Z,30.19
2023-05-31T17:50:45.947Z,30.37
2023-05-31T17:53:14.113Z,29.89
2023-05-31T17:55:43.439Z,29.92
2023-05-31T17:58:12.077Z,28.45
2023-05-31T18:00:39.903Z,27.18
2023-05-31T18:03:07.913Z,27.29
2023-05-31T18:05:35.916Z,26.90
2023-05-31T18:08:03.746Z,26.35
2023-05-31T18:10:31.715Z,26.10
2023-05-31T18:13:01.152Z,25.61
2023-05-31T18:15:29.213Z,25.25
2023-05-31T18:17:57.086Z,24.83
2023-05-31T18:20:25.099Z,24.75
2023-05-31T18:22:52.950Z,24.43
2023-05-31T18:25:22.029Z,24.27
2023-05-31T18:27:49.854Z,24.23
2023-05-31T18:30:20.154Z,24.08
2023-05-31T18:32:48.585Z,23.82
2023-05-31T18:35:18.822Z,23.38
2023-05-31T18:37:47.136Z,23.44
2023-05-31T18:40:14.966Z,23.08
2023-05-31T18:42:42.835Z,22.71
2023-05-31T18:45:12.897Z,22.54
2023-05-31T18:47:42.164Z,22.57
2023-05-31T18:50:11.979Z,22.51
2023-05-31T18:52:39.793Z,22.26
2023-05-31T18:55:08.222Z,22.10
2023-05-31T18:57:36.034Z,22.16
2023-05-31T19:00:05.159Z,22.05
2023-05-31T19:02:33.262Z,21.88
2023-05-31T19:05:02.819Z,21.69
2023-05-31T19:07:30.926Z,21.61
2023-05-31T19:09:58.728Z,21.36
2023-05-31T19:12:31.770Z,21.16
2023-05-31T19:14:59.978Z,21.00
2023-05-31T19:17:29.605Z,21.01
2023-05-31T19:19:57.593Z,20.89
2023-05-31T19:22:26.864Z,20.77
2023-05-31T19:24:56.220Z,20.56
2023-05-31T19:27:24.089Z,20.49
2023-05-31T19:29:52.172Z,20.34
2023-05-31T19:32:20.214Z,20.18
2023-05-31T19:34:49.128Z,20.10
2023-05-31T19:37:17.035Z,19.97
2023-05-31T19:39:46.141Z,19.82
2023-05-31T19:42:13.925Z,19.69
2023-05-31T19:44:41.714Z,19.53
2023-05-31T19:47:09.943Z,19.45
2023-05-31T19:49:38.544Z,19.28
2023-05-31T19:52:07.980Z,19.15
2023-05-31T19:54:36.358Z,19.08
2023-05-31T19:57:06.386Z,19.01
2023-05-31T19:59:34.515Z,18.89
2023-05-31T20:02:02.735Z,18.79
2023-05-31T20:04:31.512Z,18.68
2023-05-31T20:06:59.319Z,18.60
2023-05-31T20:09:27.252Z,18.50
2023-05-31T20:11:55.023Z,18.49
2023-05-31T20:14:24.197Z,18.41
2023-05-31T20:16:52.027Z,18.37
2023-05-31T20:19:19.839Z,18.25
2023-05-31T20:21:49.131Z,18.21
2023-05-31T20:24:17.191Z,18.11
2023-05-31T20:26:44.971Z,18.05
2023-05-31T20:29:12.860Z,17.90
2023-05-31T20:31:42.396Z,17.78
2023-05-31T20:34:10.144Z,17.65
2023-05-31T20:36:42.272Z,17.53
2023-05-31T20:39:10.294Z,17.52
2023-05-31T20:41:38.260Z,17.47
2023-05-31T20:44:06.930Z,17.39
2023-05-31T20:46:34.792Z,17.17
2023-05-31T20:49:04.115Z,17.12
2023-05-31T20:51:31.913Z,16.97
2023-05-31T20:53:59.787Z,16.86
2023-05-31T20:56:28.499Z,16.78
2023-05-31T20:58:56.739Z,16.73
2023-05-31T21:01:24.689Z,16.60
2023-05-31T21:03:52.594Z,16.40
2023-05-31T21:06:21.782Z,16.32
2023-05-31T21:08:49.528Z,16.38
2023-05-31T21:11:17.401Z,16.40
2023-05-31T21:13:45.232Z,16.47
2023-05-31T21:16:13.033Z,16.43
2023-05-31T21:18:40.810Z,16.36
2023-05-31T21:21:08.850Z,16.29
2023-05-31T21:23:38.102Z,16.22
2023-05-31T21:26:06.494Z,16.06
2023-05-31T21:28:34.305Z,16.01
2023-05-31T21:31:02.330Z,16.08
2023-05-31T21:33:30.381Z,16.05
2023-05-31T21:35:58.185Z,16.04
2023-05-31T21:38:25.940Z,16.01
2023-05-31T21:40:55.159Z,15.94
2023-05-31T21:43:22.982Z,15.97
2023-05-31T21:45:50.704Z,16.02
2023-05-31T21:48:18.443Z,16.06
2023-05-31T21:50:46.251Z,16.09
2023-05-31T21:53:14.034Z,16.01
2023-05-31T21:55:42.176Z,16.04
2023-05-31T21:58:11.302Z,16.06
2023-05-31T22:00:39.061Z,16.01
2023-05-31T22:03:06.951Z,16.01
2023-05-31T22:05:34.835Z,16.01
2023-05-31T22:08:02.729Z,15.97
2023-05-31T22:10:30.591Z,15.93
2023-05-31T22:12:58.344Z,15.90
2023-05-31T22:15:27.585Z,15.85
2023-05-31T22:17:59.083Z,15.80
2023-05-31T22:20:27.493Z,15.70
2023-05-31T22:22:56.849Z,15.68
2023-05-31T22:25:24.775Z,15.56
2023-05-31T22:27:53.326Z,15.57
2023-05-31T22:30:21.223Z,15.51
2023-05-31T22:32:50.354Z,15.48
2023-05-31T22:35:20.603Z,15.36
2023-05-31T22:37:48.557Z,15.35
2023-05-31T22:40:16.467Z,15.33
2023-05-31T22:42:44.313Z,15.30
2023-05-31T22:45:12.761Z,15.23
2023-05-31T22:47:40.652Z,15.15
2023-05-31T22:50:10.776Z,15.13
2023-05-31T22:52:41.262Z,15.08
2023-05-31T22:55:09.626Z,15.03
2023-05-31T22:57:37.392Z,15.01
2023-05-31T23:00:06.956Z,14.95
2023-05-31T23:02:34.753Z,14.91
2023-05-31T23:05:02.632Z,14.92
2023-05-31T23:07:32.850Z,14.83
2023-05-31T23:10:02.270Z,14.80
2023-05-31T23:12:31.923Z,14.78
2023-05-31T23:15:05.158Z,14.70
2023-05-31T23:17:36.065Z,14.67
2023-05-31T23:20:06.236Z,14.62
2023-05-31T23:22:35.380Z,14.52
2023-05-31T23:25:03.262Z,14.42
2023-05-31T23:27:31.399Z,14.34
2023-05-31T23:29:59.136Z,14.30
2023-05-31T23:32:26.937Z,14.23
2023-05-31T23:34:54.730Z,14.22
2023-05-31T23:37:22.532Z,14.15
2023-05-31T23:39:51.765Z,14.07
2023-05-31T23:42:19.732Z,14.00
2023-05-31T23:44:47.909Z,14.01
2023-05-31T23:47:15.732Z,13.95
2023-05-31T23:49:43.843Z,13.89
2023-05-31T23:52:11.841Z,13.82
2023-05-31T23:54:39.606Z,13.79
2023-05-31T23:57:09.060Z,13.74
2023-05-31T23:59:36.861Z,13.65
